Fayetteville, Ohio
Current Conditions -  °F | °C
As of 1:54 PM on Tuesday 27 Jan 2015 (Local Time) from KILN Reporting Station
Overcast Overcast  
Wind Chill: 14°   Ceiling: 1900
Heat Index: 22°   Visibility: 10mi
Dew Point: 13°   Wind: 6mph
Humidity: 68%   Direction: NA
Pressure: 30.06"   Gusts: NA
Location:  39.19°N, 83.93°W
Report Text: KILN 271854Z AUTO VRB05KT 10SM OVC019 M06/M11 A3006 RMK AO2 SLP216 T10561106
Loading
Personal Weather Stations






























Interactive Weather Map New forecast layout! Learn more

10-Day Weather Forecast

Advertisements
Track Severe Weather on mobile